sensor_id;sensor_type;location;lat;lon;timestamp;P1;durP1;ratioP1;P2;durP2;ratioP2
67562;SDS011;54392;53.556;49.214;2022-09-13T00:01:34;35.95;;;17.50;;
67562;SDS011;54392;53.556;49.214;2022-09-13T00:04:05;34.53;;;17.00;;
67562;SDS011;54392;53.556;49.214;2022-09-13T00:06:31;24.37;;;17.37;;
67562;SDS011;54392;53.556;49.214;2022-09-13T00:08:57;24.40;;;14.73;;
67562;SDS011;54392;53.556;49.214;2022-09-13T00:11:26;19.70;;;13.80;;
67562;SDS011;54392;53.556;49.214;2022-09-13T00:13:57;23.05;;;13.32;;
67562;SDS011;54392;53.556;49.214;2022-09-13T00:16:24;35.85;;;16.02;;
67562;SDS011;54392;53.556;49.214;2022-09-13T00:18:54;26.08;;;14.75;;
67562;SDS011;54392;53.556;49.214;2022-09-13T00:21:23;15.48;;;13.20;;
67562;SDS011;54392;53.556;49.214;2022-09-13T00:23:52;23.58;;;14.52;;
67562;SDS011;54392;53.556;49.214;2022-09-13T00:28:51;26.65;;;16.55;;
67562;SDS011;54392;53.556;49.214;2022-09-13T00:31:19;27.60;;;19.45;;
67562;SDS011;54392;53.556;49.214;2022-09-13T00:33:49;33.17;;;19.55;;
67562;SDS011;54392;53.556;49.214;2022-09-13T00:36:21;34.25;;;22.30;;
67562;SDS011;54392;53.556;49.214;2022-09-13T00:38:47;35.25;;;22.25;;
67562;SDS011;54392;53.556;49.214;2022-09-13T00:41:14;46.42;;;20.42;;
67562;SDS011;54392;53.556;49.214;2022-09-13T00:43:49;40.00;;;22.50;;
67562;SDS011;54392;53.556;49.214;2022-09-13T00:48:59;32.70;;;21.58;;
67562;SDS011;54392;53.556;49.214;2022-09-13T00:51:30;33.40;;;22.10;;
67562;SDS011;54392;53.556;49.214;2022-09-13T00:53:56;33.47;;;21.67;;
67562;SDS011;54392;53.556;49.214;2022-09-13T00:56:26;39.33;;;22.08;;
67562;SDS011;54392;53.556;49.214;2022-09-13T00:58:58;47.30;;;25.25;;
67562;SDS011;54392;53.556;49.214;2022-09-13T01:01:34;46.03;;;26.48;;
67562;SDS011;54392;53.556;49.214;2022-09-13T01:04:07;56.40;;;27.50;;
67562;SDS011;54392;53.556;49.214;2022-09-13T01:06:36;52.50;;;26.48;;
67562;SDS011;54392;53.556;49.214;2022-09-13T01:09:03;59.08;;;30.30;;
67562;SDS011;54392;53.556;49.214;2022-09-13T01:14:17;38.53;;;21.45;;
67562;SDS011;54392;53.556;49.214;2022-09-13T01:16:44;56.45;;;27.92;;
67562;SDS011;54392;53.556;49.214;2022-09-13T01:19:14;53.65;;;26.37;;
67562;SDS011;54392;53.556;49.214;2022-09-13T01:30:24;27.70;;;22.23;;
67562;SDS011;54392;53.556;49.214;2022-09-13T01:33:02;48.45;;;29.17;;
67562;SDS011;54392;53.556;49.214;2022-09-13T01:49:26;57.15;;;31.12;;
67562;SDS011;54392;53.556;49.214;2022-09-13T01:52:00;54.63;;;30.62;;
67562;SDS011;54392;53.556;49.214;2022-09-13T01:57:24;47.83;;;29.10;;
67562;SDS011;54392;53.556;49.214;2022-09-13T02:00:06;59.75;;;30.00;;
67562;SDS011;54392;53.556;49.214;2022-09-13T02:02:37;52.28;;;30.02;;
67562;SDS011;54392;53.556;49.214;2022-09-13T02:05:12;62.65;;;30.98;;
67562;SDS011;54392;53.556;49.214;2022-09-13T02:07:49;45.22;;;27.55;;
67562;SDS011;54392;53.556;49.214;2022-09-13T02:10:26;42.85;;;28.98;;
67562;SDS011;54392;53.556;49.214;2022-09-13T02:12:57;54.55;;;31.15;;
67562;SDS011;54392;53.556;49.214;2022-09-13T02:15:35;56.92;;;29.58;;
67562;SDS011;54392;53.556;49.214;2022-09-13T02:18:29;33.22;;;29.65;;
67562;SDS011;54392;53.556;49.214;2022-09-13T02:21:13;58.63;;;30.58;;
67562;SDS011;54392;53.556;49.214;2022-09-13T02:23:49;49.95;;;31.52;;
67562;SDS011;54392;53.556;49.214;2022-09-13T02:26:18;41.50;;;30.80;;
67562;SDS011;54392;53.556;49.214;2022-09-13T02:28:50;43.95;;;31.20;;
67562;SDS011;54392;53.556;49.214;2022-09-13T02:31:25;30.15;;;23.25;;
67562;SDS011;54392;53.556;49.214;2022-09-13T02:33:55;35.30;;;25.48;;
67562;SDS011;54392;53.556;49.214;2022-09-13T02:36:27;28.75;;;20.08;;
67562;SDS011;54392;53.556;49.214;2022-09-13T02:38:55;44.97;;;20.45;;
67562;SDS011;54392;53.556;49.214;2022-09-13T02:41:35;45.85;;;20.73;;
67562;SDS011;54392;53.556;49.214;2022-09-13T02:44:11;26.80;;;17.98;;
67562;SDS011;54392;53.556;49.214;2022-09-13T02:46:57;30.40;;;16.35;;
67562;SDS011;54392;53.556;49.214;2022-09-13T02:57:58;20.80;;;15.52;;
67562;SDS011;54392;53.556;49.214;2022-09-13T03:00:19;21.73;;;16.05;;
67562;SDS011;54392;53.556;49.214;2022-09-13T03:02:46;24.15;;;16.58;;
67562;SDS011;54392;53.556;49.214;2022-09-13T03:05:26;24.83;;;15.05;;
67562;SDS011;54392;53.556;49.214;2022-09-13T03:07:59;34.88;;;20.02;;
67562;SDS011;54392;53.556;49.214;2022-09-13T03:10:30;45.10;;;25.73;;
67562;SDS011;54392;53.556;49.214;2022-09-13T03:13:10;22.13;;;14.35;;
67562;SDS011;54392;53.556;49.214;2022-09-13T03:30:13;10.18;;;7.37;;
67562;SDS011;54392;53.556;49.214;2022-09-13T03:32:50;7.25;;;6.18;;
67562;SDS011;54392;53.556;49.214;2022-09-13T03:41:21;6.87;;;5.90;;
67562;SDS011;54392;53.556;49.214;2022-09-13T03:44:24;6.28;;;5.68;;
67562;SDS011;54392;53.556;49.214;2022-09-13T03:46:46;6.15;;;5.50;;
67562;SDS011;54392;53.556;49.214;2022-09-13T03:49:14;6.82;;;5.72;;
67562;SDS011;54392;53.556;49.214;2022-09-13T03:51:44;6.37;;;5.18;;
67562;SDS011;54392;53.556;49.214;2022-09-13T03:54:20;7.55;;;6.20;;
67562;SDS011;54392;53.556;49.214;2022-09-13T03:59:48;13.70;;;4.37;;
67562;SDS011;54392;53.556;49.214;2022-09-13T04:02:15;14.43;;;4.90;;
67562;SDS011;54392;53.556;49.214;2022-09-13T04:04:44;9.27;;;4.87;;
67562;SDS011;54392;53.556;49.214;2022-09-13T04:07:13;8.15;;;4.00;;
67562;SDS011;54392;53.556;49.214;2022-09-13T04:09:43;5.28;;;3.90;;
67562;SDS011;54392;53.556;49.214;2022-09-13T04:12:13;5.87;;;5.28;;
67562;SDS011;54392;53.556;49.214;2022-09-13T04:14:40;4.90;;;3.85;;
67562;SDS011;54392;53.556;49.214;2022-09-13T04:17:10;5.07;;;4.57;;
67562;SDS011;54392;53.556;49.214;2022-09-13T04:19:39;14.30;;;5.00;;
67562;SDS011;54392;53.556;49.214;2022-09-13T04:22:05;8.13;;;4.62;;
67562;SDS011;54392;53.556;49.214;2022-09-13T04:24:38;4.43;;;3.50;;
67562;SDS011;54392;53.556;49.214;2022-09-13T04:27:04;4.57;;;3.55;;
67562;SDS011;54392;53.556;49.214;2022-09-13T04:29:33;6.55;;;3.50;;
67562;SDS011;54392;53.556;49.214;2022-09-13T04:31:59;5.50;;;4.47;;
67562;SDS011;54392;53.556;49.214;2022-09-13T04:34:28;27.20;;;4.20;;
67562;SDS011;54392;53.556;49.214;2022-09-13T04:36:54;9.40;;;4.20;;
67562;SDS011;54392;53.556;49.214;2022-09-13T04:39:21;6.70;;;4.60;;
67562;SDS011;54392;53.556;49.214;2022-09-13T04:41:50;4.12;;;3.72;;
67562;SDS011;54392;53.556;49.214;2022-09-13T04:44:19;15.45;;;4.55;;
67562;SDS011;54392;53.556;49.214;2022-09-13T04:46:49;4.72;;;4.30;;
67562;SDS011;54392;53.556;49.214;2022-09-13T04:49:15;4.43;;;4.03;;
67562;SDS011;54392;53.556;49.214;2022-09-13T04:51:42;7.70;;;4.12;;
67562;SDS011;54392;53.556;49.214;2022-09-13T04:54:09;4.35;;;3.50;;
67562;SDS011;54392;53.556;49.214;2022-09-13T04:56:38;3.70;;;3.17;;
67562;SDS011;54392;53.556;49.214;2022-09-13T04:59:04;15.82;;;4.30;;
67562;SDS011;54392;53.556;49.214;2022-09-13T05:01:34;3.75;;;3.45;;
67562;SDS011;54392;53.556;49.214;2022-09-13T05:04:00;9.57;;;3.42;;
67562;SDS011;54392;53.556;49.214;2022-09-13T05:06:26;7.05;;;3.75;;
67562;SDS011;54392;53.556;49.214;2022-09-13T05:08:54;6.07;;;3.87;;
67562;SDS011;54392;53.556;49.214;2022-09-13T05:11:24;2.92;;;2.72;;
67562;SDS011;54392;53.556;49.214;2022-09-13T05:13:54;3.87;;;3.15;;
67562;SDS011;54392;53.556;49.214;2022-09-13T05:16:24;3.50;;;3.20;;
67562;SDS011;54392;53.556;49.214;2022-09-13T05:18:51;4.20;;;2.83;;
67562;SDS011;54392;53.556;49.214;2022-09-13T05:21:21;10.90;;;4.70;;
67562;SDS011;54392;53.556;49.214;2022-09-13T05:23:50;3.22;;;2.92;;
67562;SDS011;54392;53.556;49.214;2022-09-13T05:26:24;4.05;;;3.10;;
67562;SDS011;54392;53.556;49.214;2022-09-13T05:28:51;2.40;;;1.98;;
67562;SDS011;54392;53.556;49.214;2022-09-13T05:31:24;10.20;;;3.15;;
67562;SDS011;54392;53.556;49.214;2022-09-13T05:33:56;3.05;;;2.75;;
67562;SDS011;54392;53.556;49.214;2022-09-13T05:36:27;2.33;;;2.03;;
67562;SDS011;54392;53.556;49.214;2022-09-13T05:38:56;4.80;;;3.30;;
67562;SDS011;54392;53.556;49.214;2022-09-13T05:41:23;2.50;;;2.30;;
67562;SDS011;54392;53.556;49.214;2022-09-13T05:43:49;2.97;;;2.67;;
67562;SDS011;54392;53.556;49.214;2022-09-13T05:46:16;2.85;;;2.62;;
67562;SDS011;54392;53.556;49.214;2022-09-13T05:48:44;3.47;;;2.70;;
67562;SDS011;54392;53.556;49.214;2022-09-13T05:51:12;4.65;;;2.15;;
67562;SDS011;54392;53.556;49.214;2022-09-13T05:53:43;4.30;;;2.87;;
67562;SDS011;54392;53.556;49.214;2022-09-13T05:56:14;3.40;;;2.00;;
67562;SDS011;54392;53.556;49.214;2022-09-13T05:58:44;2.60;;;2.37;;
67562;SDS011;54392;53.556;49.214;2022-09-13T06:01:12;3.05;;;2.67;;
67562;SDS011;54392;53.556;49.214;2022-09-13T06:03:40;2.45;;;1.83;;
67562;SDS011;54392;53.556;49.214;2022-09-13T06:06:06;3.15;;;1.75;;
67562;SDS011;54392;53.556;49.214;2022-09-13T06:08:33;2.55;;;2.10;;
67562;SDS011;54392;53.556;49.214;2022-09-13T06:11:03;2.53;;;2.33;;
67562;SDS011;54392;53.556;49.214;2022-09-13T06:13:31;6.53;;;2.55;;
67562;SDS011;54392;53.556;49.214;2022-09-13T06:15:58;4.70;;;2.42;;
67562;SDS011;54392;53.556;49.214;2022-09-13T06:18:25;2.78;;;2.58;;
67562;SDS011;54392;53.556;49.214;2022-09-13T06:21:02;3.92;;;2.25;;
67562;SDS011;54392;53.556;49.214;2022-09-13T06:23:33;3.75;;;3.25;;
67562;SDS011;54392;53.556;49.214;2022-09-13T06:26:03;3.45;;;2.55;;
67562;SDS011;54392;53.556;49.214;2022-09-13T06:28:35;2.85;;;2.47;;
67562;SDS011;54392;53.556;49.214;2022-09-13T06:31:06;2.95;;;2.37;;
67562;SDS011;54392;53.556;49.214;2022-09-13T06:33:39;2.97;;;2.70;;
67562;SDS011;54392;53.556;49.214;2022-09-13T06:36:14;1.62;;;1.37;;
67562;SDS011;54392;53.556;49.214;2022-09-13T06:38:42;2.62;;;2.05;;
67562;SDS011;54392;53.556;49.214;2022-09-13T06:41:13;9.90;;;2.72;;
67562;SDS011;54392;53.556;49.214;2022-09-13T06:43:44;1.98;;;1.83;;
67562;SDS011;54392;53.556;49.214;2022-09-13T06:46:11;3.70;;;3.15;;
67562;SDS011;54392;53.556;49.214;2022-09-13T06:48:41;7.12;;;2.65;;
67562;SDS011;54392;53.556;49.214;2022-09-13T06:51:09;10.02;;;2.53;;
67562;SDS011;54392;53.556;49.214;2022-09-13T06:53:36;6.40;;;2.62;;
67562;SDS011;54392;53.556;49.214;2022-09-13T06:56:07;8.90;;;2.22;;
67562;SDS011;54392;53.556;49.214;2022-09-13T06:58:38;6.12;;;2.90;;
67562;SDS011;54392;53.556;49.214;2022-09-13T07:01:06;2.12;;;1.98;;
67562;SDS011;54392;53.556;49.214;2022-09-13T07:03:49;5.85;;;3.08;;
67562;SDS011;54392;53.556;49.214;2022-09-13T07:06:17;9.87;;;1.97;;
67562;SDS011;54392;53.556;49.214;2022-09-13T07:08:54;1.73;;;1.62;;
67562;SDS011;54392;53.556;49.214;2022-09-13T07:11:22;1.35;;;1.25;;
67562;SDS011;54392;53.556;49.214;2022-09-13T07:13:53;1.80;;;1.50;;
67562;SDS011;54392;53.556;49.214;2022-09-13T07:16:22;2.83;;;1.60;;
67562;SDS011;54392;53.556;49.214;2022-09-13T07:18:50;2.95;;;1.65;;
67562;SDS011;54392;53.556;49.214;2022-09-13T07:21:17;2.85;;;2.60;;
67562;SDS011;54392;53.556;49.214;2022-09-13T07:23:44;2.25;;;2.15;;
67562;SDS011;54392;53.556;49.214;2022-09-13T07:26:13;3.65;;;2.50;;
67562;SDS011;54392;53.556;49.214;2022-09-13T07:28:40;2.37;;;2.17;;
67562;SDS011;54392;53.556;49.214;2022-09-13T07:31:08;2.22;;;1.73;;
67562;SDS011;54392;53.556;49.214;2022-09-13T07:33:36;1.90;;;1.70;;
67562;SDS011;54392;53.556;49.214;2022-09-13T07:36:04;2.00;;;1.52;;
67562;SDS011;54392;53.556;49.214;2022-09-13T07:38:32;2.40;;;2.15;;
67562;SDS011;54392;53.556;49.214;2022-09-13T07:41:05;1.67;;;1.45;;
67562;SDS011;54392;53.556;49.214;2022-09-13T07:43:34;3.17;;;2.25;;
67562;SDS011;54392;53.556;49.214;2022-09-13T07:46:01;6.35;;;3.30;;
67562;SDS011;54392;53.556;49.214;2022-09-13T07:48:32;2.03;;;1.55;;
67562;SDS011;54392;53.556;49.214;2022-09-13T07:51:04;6.50;;;1.90;;
67562;SDS011;54392;53.556;49.214;2022-09-13T07:53:32;1.73;;;1.60;;
67562;SDS011;54392;53.556;49.214;2022-09-13T07:56:08;2.50;;;2.15;;
67562;SDS011;54392;53.556;49.214;2022-09-13T07:58:39;1.92;;;1.83;;
67562;SDS011;54392;53.556;49.214;2022-09-13T08:03:35;10.98;;;3.12;;
67562;SDS011;54392;53.556;49.214;2022-09-13T08:06:04;4.85;;;2.60;;
67562;SDS011;54392;53.556;49.214;2022-09-13T08:08:31;1.37;;;1.25;;
67562;SDS011;54392;53.556;49.214;2022-09-13T08:10:58;4.93;;;2.53;;
67562;SDS011;54392;53.556;49.214;2022-09-13T08:13:28;2.40;;;2.00;;
67562;SDS011;54392;53.556;49.214;2022-09-13T08:16:00;3.80;;;2.50;;
67562;SDS011;54392;53.556;49.214;2022-09-13T08:18:32;2.17;;;1.98;;
67562;SDS011;54392;53.556;49.214;2022-09-13T08:21:00;5.45;;;2.08;;
67562;SDS011;54392;53.556;49.214;2022-09-13T08:23:27;8.48;;;3.05;;
67562;SDS011;54392;53.556;49.214;2022-09-13T08:25:53;1.70;;;1.60;;
67562;SDS011;54392;53.556;49.214;2022-09-13T08:28:19;1.95;;;1.85;;
67562;SDS011;54392;53.556;49.214;2022-09-13T08:30:46;10.07;;;5.28;;
67562;SDS011;54392;53.556;49.214;2022-09-13T08:33:13;2.45;;;1.87;;
67562;SDS011;54392;53.556;49.214;2022-09-13T08:35:39;8.55;;;2.37;;
67562;SDS011;54392;53.556;49.214;2022-09-13T08:38:16;4.93;;;3.08;;
67562;SDS011;54392;53.556;49.214;2022-09-13T08:40:53;3.45;;;2.42;;
67562;SDS011;54392;53.556;49.214;2022-09-13T08:46:04;4.80;;;2.53;;
67562;SDS011;54392;53.556;49.214;2022-09-13T08:48:35;2.75;;;2.30;;
67562;SDS011;54392;53.556;49.214;2022-09-13T08:51:05;1.98;;;1.87;;
67562;SDS011;54392;53.556;49.214;2022-09-13T08:53:41;4.15;;;2.95;;
67562;SDS011;54392;53.556;49.214;2022-09-13T08:56:18;2.92;;;2.45;;
67562;SDS011;54392;53.556;49.214;2022-09-13T09:06:24;4.20;;;2.47;;
67562;SDS011;54392;53.556;49.214;2022-09-13T09:08:52;3.08;;;2.62;;
67562;SDS011;54392;53.556;49.214;2022-09-13T09:11:36;3.40;;;2.62;;
67562;SDS011;54392;53.556;49.214;2022-09-13T09:14:07;4.07;;;2.83;;
67562;SDS011;54392;53.556;49.214;2022-09-13T09:16:42;2.60;;;2.33;;
67562;SDS011;54392;53.556;49.214;2022-09-13T09:19:17;3.28;;;1.67;;
67562;SDS011;54392;53.556;49.214;2022-09-13T09:21:59;2.58;;;1.90;;
67562;SDS011;54392;53.556;49.214;2022-09-13T09:24:29;2.15;;;1.58;;
67562;SDS011;54392;53.556;49.214;2022-09-13T09:26:58;2.53;;;2.33;;
67562;SDS011;54392;53.556;49.214;2022-09-13T09:29:29;5.85;;;2.17;;
67562;SDS011;54392;53.556;49.214;2022-09-13T09:34:54;3.37;;;1.87;;
67562;SDS011;54392;53.556;49.214;2022-09-13T09:37:37;5.07;;;2.50;;
67562;SDS011;54392;53.556;49.214;2022-09-13T09:40:05;2.28;;;2.08;;
67562;SDS011;54392;53.556;49.214;2022-09-13T09:42:40;2.72;;;1.85;;
67562;SDS011;54392;53.556;49.214;2022-09-13T09:45:18;1.95;;;1.75;;
67562;SDS011;54392;53.556;49.214;2022-09-13T09:47:55;2.17;;;1.98;;
67562;SDS011;54392;53.556;49.214;2022-09-13T09:50:29;3.47;;;3.17;;
67562;SDS011;54392;53.556;49.214;2022-09-13T09:53:11;2.35;;;2.15;;
67562;SDS011;54392;53.556;49.214;2022-09-13T09:56:00;1.67;;;1.58;;
67562;SDS011;54392;53.556;49.214;2022-09-13T10:01:04;2.95;;;2.65;;
67562;SDS011;54392;53.556;49.214;2022-09-13T10:03:33;2.92;;;2.45;;
67562;SDS011;54392;53.556;49.214;2022-09-13T10:08:39;2.75;;;1.80;;
67562;SDS011;54392;53.556;49.214;2022-09-13T10:11:06;2.75;;;2.03;;
67562;SDS011;54392;53.556;49.214;2022-09-13T10:13:33;10.10;;;3.65;;
67562;SDS011;54392;53.556;49.214;2022-09-13T10:18:31;3.10;;;2.03;;
67562;SDS011;54392;53.556;49.214;2022-09-13T10:21:00;4.82;;;2.60;;
67562;SDS011;54392;53.556;49.214;2022-09-13T10:23:46;6.60;;;3.30;;
67562;SDS011;54392;53.556;49.214;2022-09-13T10:28:45;2.58;;;2.03;;
67562;SDS011;54392;53.556;49.214;2022-09-13T10:31:26;2.05;;;1.95;;
67562;SDS011;54392;53.556;49.214;2022-09-13T10:33:56;2.08;;;1.87;;
67562;SDS011;54392;53.556;49.214;2022-09-13T10:39:29;4.40;;;2.62;;
67562;SDS011;54392;53.556;49.214;2022-09-13T10:42:01;12.95;;;3.78;;
67562;SDS011;54392;53.556;49.214;2022-09-13T10:44:39;2.55;;;2.35;;
67562;SDS011;54392;53.556;49.214;2022-09-13T10:47:13;13.15;;;2.95;;
67562;SDS011;54392;53.556;49.214;2022-09-13T10:49:46;2.95;;;2.67;;
67562;SDS011;54392;53.556;49.214;2022-09-13T10:57:43;7.43;;;2.40;;
67562;SDS011;54392;53.556;49.214;2022-09-13T11:06:04;3.45;;;2.67;;
67562;SDS011;54392;53.556;49.214;2022-09-13T11:11:20;3.15;;;2.37;;
67562;SDS011;54392;53.556;49.214;2022-09-13T11:19:46;3.70;;;3.28;;
67562;SDS011;54392;53.556;49.214;2022-09-13T11:22:24;2.85;;;2.62;;
67562;SDS011;54392;53.556;49.214;2022-09-13T11:30:11;2.60;;;2.40;;
67562;SDS011;54392;53.556;49.214;2022-09-13T11:47:00;3.20;;;3.00;;
67562;SDS011;54392;53.556;49.214;2022-09-13T11:55:14;3.35;;;3.05;;
67562;SDS011;54392;53.556;49.214;2022-09-13T11:57:48;2.45;;;2.25;;
67562;SDS011;54392;53.556;49.214;2022-09-13T12:03:09;8.32;;;2.95;;
67562;SDS011;54392;53.556;49.214;2022-09-13T12:05:51;3.67;;;2.50;;
67562;SDS011;54392;53.556;49.214;2022-09-13T12:08:28;2.42;;;2.25;;
67562;SDS011;54392;53.556;49.214;2022-09-13T12:13:30;5.40;;;2.45;;
67562;SDS011;54392;53.556;49.214;2022-09-13T12:16:01;3.58;;;2.62;;
67562;SDS011;54392;53.556;49.214;2022-09-13T12:18:43;10.10;;;3.25;;
67562;SDS011;54392;53.556;49.214;2022-09-13T12:21:15;3.58;;;2.90;;
67562;SDS011;54392;53.556;49.214;2022-09-13T12:23:53;2.95;;;2.67;;
67562;SDS011;54392;53.556;49.214;2022-09-13T12:26:30;3.15;;;2.50;;
67562;SDS011;54392;53.556;49.214;2022-09-13T12:29:10;2.10;;;1.90;;
67562;SDS011;54392;53.556;49.214;2022-09-13T12:31:46;2.83;;;2.55;;
67562;SDS011;54392;53.556;49.214;2022-09-13T12:34:15;8.70;;;3.12;;
67562;SDS011;54392;53.556;49.214;2022-09-13T12:39:42;3.03;;;2.70;;
67562;SDS011;54392;53.556;49.214;2022-09-13T12:44:52;4.03;;;3.47;;
67562;SDS011;54392;53.556;49.214;2022-09-13T12:56:15;7.15;;;3.55;;
67562;SDS011;54392;53.556;49.214;2022-09-13T13:01:42;4.72;;;2.47;;
67562;SDS011;54392;53.556;49.214;2022-09-13T13:07:01;11.32;;;3.72;;
67562;SDS011;54392;53.556;49.214;2022-09-13T13:12:10;3.47;;;2.95;;
67562;SDS011;54392;53.556;49.214;2022-09-13T13:14:52;7.68;;;3.33;;
67562;SDS011;54392;53.556;49.214;2022-09-13T13:36:24;3.62;;;3.33;;
67562;SDS011;54392;53.556;49.214;2022-09-13T13:46:52;6.75;;;3.90;;
67562;SDS011;54392;53.556;49.214;2022-09-13T14:02:35;6.43;;;4.05;;
67562;SDS011;54392;53.556;49.214;2022-09-13T14:08:12;4.62;;;3.78;;
67562;SDS011;54392;53.556;49.214;2022-09-13T14:13:33;4.85;;;3.80;;
67562;SDS011;54392;53.556;49.214;2022-09-13T14:21:23;4.22;;;3.83;;
67562;SDS011;54392;53.556;49.214;2022-09-13T14:26:32;6.78;;;3.60;;
67562;SDS011;54392;53.556;49.214;2022-09-13T14:29:04;4.20;;;3.80;;
67562;SDS011;54392;53.556;49.214;2022-09-13T14:31:35;8.55;;;3.37;;
67562;SDS011;54392;53.556;49.214;2022-09-13T14:34:02;4.57;;;3.95;;
67562;SDS011;54392;53.556;49.214;2022-09-13T14:36:30;4.78;;;4.35;;
67562;SDS011;54392;53.556;49.214;2022-09-13T14:38:57;4.90;;;4.40;;
67562;SDS011;54392;53.556;49.214;2022-09-13T14:41:28;4.12;;;3.80;;
67562;SDS011;54392;53.556;49.214;2022-09-13T14:44:12;11.27;;;4.78;;
67562;SDS011;54392;53.556;49.214;2022-09-13T14:46:47;12.85;;;3.97;;
67562;SDS011;54392;53.556;49.214;2022-09-13T14:49:24;8.40;;;4.87;;
67562;SDS011;54392;53.556;49.214;2022-09-13T14:51:55;5.47;;;4.82;;
67562;SDS011;54392;53.556;49.214;2022-09-13T14:54:35;3.40;;;3.03;;
67562;SDS011;54392;53.556;49.214;2022-09-13T14:57:08;3.08;;;2.78;;
67562;SDS011;54392;53.556;49.214;2022-09-13T14:59:47;6.70;;;5.50;;
67562;SDS011;54392;53.556;49.214;2022-09-13T15:02:37;13.33;;;9.03;;
67562;SDS011;54392;53.556;49.214;2022-09-13T15:05:28;8.77;;;8.00;;
67562;SDS011;54392;53.556;49.214;2022-09-13T15:07:56;18.50;;;9.00;;
67562;SDS011;54392;53.556;49.214;2022-09-13T15:10:33;10.30;;;8.50;;
67562;SDS011;54392;53.556;49.214;2022-09-13T15:13:09;15.73;;;11.25;;
67562;SDS011;54392;53.556;49.214;2022-09-13T15:15:39;17.00;;;8.45;;
67562;SDS011;54392;53.556;49.214;2022-09-13T15:23:47;14.05;;;8.88;;
67562;SDS011;54392;53.556;49.214;2022-09-13T15:28:57;14.95;;;9.82;;
67562;SDS011;54392;53.556;49.214;2022-09-13T15:31:29;23.30;;;12.95;;
67562;SDS011;54392;53.556;49.214;2022-09-13T15:36:42;28.33;;;13.82;;
67562;SDS011;54392;53.556;49.214;2022-09-13T15:39:19;21.50;;;14.20;;
67562;SDS011;54392;53.556;49.214;2022-09-13T15:41:53;24.63;;;12.88;;
67562;SDS011;54392;53.556;49.214;2022-09-13T15:44:20;15.65;;;9.45;;
67562;SDS011;54392;53.556;49.214;2022-09-13T15:49:19;26.95;;;13.35;;
67562;SDS011;54392;53.556;49.214;2022-09-13T15:51:53;24.10;;;11.77;;
67562;SDS011;54392;53.556;49.214;2022-09-13T15:54:23;23.55;;;15.20;;
67562;SDS011;54392;53.556;49.214;2022-09-13T15:59:21;24.55;;;11.65;;
67562;SDS011;54392;53.556;49.214;2022-09-13T16:01:50;20.48;;;11.95;;
67562;SDS011;54392;53.556;49.214;2022-09-13T16:04:17;18.87;;;12.50;;
67562;SDS011;54392;53.556;49.214;2022-09-13T16:06:46;15.52;;;10.93;;
67562;SDS011;54392;53.556;49.214;2022-09-13T16:09:22;16.30;;;10.68;;
67562;SDS011;54392;53.556;49.214;2022-09-13T16:11:53;19.52;;;10.15;;
67562;SDS011;54392;53.556;49.214;2022-09-13T16:14:19;24.12;;;12.90;;
67562;SDS011;54392;53.556;49.214;2022-09-13T16:16:46;20.90;;;12.95;;
67562;SDS011;54392;53.556;49.214;2022-09-13T16:19:31;17.25;;;9.57;;
67562;SDS011;54392;53.556;49.214;2022-09-13T16:21:57;18.40;;;11.60;;
67562;SDS011;54392;53.556;49.214;2022-09-13T16:24:23;11.43;;;10.25;;
67562;SDS011;54392;53.556;49.214;2022-09-13T16:26:52;23.75;;;12.45;;
67562;SDS011;54392;53.556;49.214;2022-09-13T16:29:24;23.90;;;12.52;;
67562;SDS011;54392;53.556;49.214;2022-09-13T16:31:51;15.25;;;10.65;;
67562;SDS011;54392;53.556;49.214;2022-09-13T16:34:20;18.37;;;10.25;;
67562;SDS011;54392;53.556;49.214;2022-09-13T16:36:48;18.12;;;10.38;;
67562;SDS011;54392;53.556;49.214;2022-09-13T16:39:18;15.77;;;11.15;;
67562;SDS011;54392;53.556;49.214;2022-09-13T16:41:56;16.62;;;9.02;;
67562;SDS011;54392;53.556;49.214;2022-09-13T16:44:22;20.83;;;8.52;;
67562;SDS011;54392;53.556;49.214;2022-09-13T16:46:49;20.12;;;10.07;;
67562;SDS011;54392;53.556;49.214;2022-09-13T16:49:15;12.52;;;9.85;;
67562;SDS011;54392;53.556;49.214;2022-09-13T16:51:44;11.25;;;8.27;;
67562;SDS011;54392;53.556;49.214;2022-09-13T16:54:11;13.75;;;10.02;;
67562;SDS011;54392;53.556;49.214;2022-09-13T16:56:37;15.60;;;9.82;;
67562;SDS011;54392;53.556;49.214;2022-09-13T16:59:03;15.48;;;9.63;;
67562;SDS011;54392;53.556;49.214;2022-09-13T17:01:29;14.05;;;9.98;;
67562;SDS011;54392;53.556;49.214;2022-09-13T17:03:56;12.68;;;10.52;;
67562;SDS011;54392;53.556;49.214;2022-09-13T17:06:23;27.20;;;11.48;;
67562;SDS011;54392;53.556;49.214;2022-09-13T17:08:51;9.35;;;8.48;;
67562;SDS011;54392;53.556;49.214;2022-09-13T17:11:21;21.30;;;6.95;;
67562;SDS011;54392;53.556;49.214;2022-09-13T17:13:49;9.60;;;6.47;;
67562;SDS011;54392;53.556;49.214;2022-09-13T17:16:33;30.05;;;5.65;;
67562;SDS011;54392;53.556;49.214;2022-09-13T17:19:06;8.57;;;6.82;;
67562;SDS011;54392;53.556;49.214;2022-09-13T17:21:34;8.27;;;5.35;;
67562;SDS011;54392;53.556;49.214;2022-09-13T17:24:01;5.60;;;3.62;;
67562;SDS011;54392;53.556;49.214;2022-09-13T17:26:30;5.55;;;4.78;;
67562;SDS011;54392;53.556;49.214;2022-09-13T17:28:56;6.70;;;4.80;;
67562;SDS011;54392;53.556;49.214;2022-09-13T17:31:22;4.18;;;3.78;;
67562;SDS011;54392;53.556;49.214;2022-09-13T17:33:51;13.50;;;5.87;;
67562;SDS011;54392;53.556;49.214;2022-09-13T17:36:22;5.12;;;4.70;;
67562;SDS011;54392;53.556;49.214;2022-09-13T17:38:53;4.25;;;3.22;;
67562;SDS011;54392;53.556;49.214;2022-09-13T17:41:22;6.47;;;4.47;;
67562;SDS011;54392;53.556;49.214;2022-09-13T17:43:52;6.82;;;4.62;;
67562;SDS011;54392;53.556;49.214;2022-09-13T17:46:22;3.92;;;3.58;;
67562;SDS011;54392;53.556;49.214;2022-09-13T17:48:52;5.43;;;4.62;;
67562;SDS011;54392;53.556;49.214;2022-09-13T17:51:20;4.35;;;3.87;;
67562;SDS011;54392;53.556;49.214;2022-09-13T17:53:51;5.57;;;5.07;;
67562;SDS011;54392;53.556;49.214;2022-09-13T17:56:21;3.78;;;3.20;;
67562;SDS011;54392;53.556;49.214;2022-09-13T17:58:50;4.75;;;3.92;;
67562;SDS011;54392;53.556;49.214;2022-09-13T18:01:17;4.50;;;4.07;;
67562;SDS011;54392;53.556;49.214;2022-09-13T18:03:45;4.93;;;3.97;;
67562;SDS011;54392;53.556;49.214;2022-09-13T18:06:12;5.93;;;5.43;;
67562;SDS011;54392;53.556;49.214;2022-09-13T18:08:39;9.95;;;4.03;;
67562;SDS011;54392;53.556;49.214;2022-09-13T18:11:10;4.12;;;3.70;;
67562;SDS011;54392;53.556;49.214;2022-09-13T18:13:37;5.25;;;3.97;;
67562;SDS011;54392;53.556;49.214;2022-09-13T18:16:08;5.57;;;4.22;;
67562;SDS011;54392;53.556;49.214;2022-09-13T18:18:44;6.60;;;3.83;;
67562;SDS011;54392;53.556;49.214;2022-09-13T18:21:13;4.80;;;4.30;;
67562;SDS011;54392;53.556;49.214;2022-09-13T18:23:44;4.07;;;3.20;;
67562;SDS011;54392;53.556;49.214;2022-09-13T18:26:11;6.37;;;4.47;;
67562;SDS011;54392;53.556;49.214;2022-09-13T18:28:38;5.72;;;4.07;;
67562;SDS011;54392;53.556;49.214;2022-09-13T18:31:06;7.62;;;4.15;;
67562;SDS011;54392;53.556;49.214;2022-09-13T18:33:35;3.60;;;3.30;;
67562;SDS011;54392;53.556;49.214;2022-09-13T18:36:08;5.43;;;4.53;;
67562;SDS011;54392;53.556;49.214;2022-09-13T18:38:42;5.35;;;4.75;;
67562;SDS011;54392;53.556;49.214;2022-09-13T18:41:11;10.35;;;5.07;;
67562;SDS011;54392;53.556;49.214;2022-09-13T18:43:41;17.08;;;5.40;;
67562;SDS011;54392;53.556;49.214;2022-09-13T18:46:09;5.53;;;5.10;;